Time;durP1;ratioP1;P1;durP2;ratioP2;P2;SDS_P1;SDS_P2;PMS_P1;PMS_P2;Temp;Humidity;BMP_temperature;BMP_pressure;BME280_temperature;BME280_humidity;BME280_pressure;Samples;Min_cycle;Max_cycle;Signal;HPM_P1;HPM_P2
2021/08/01 00:00:39;;;;;;;10.93;7.28;;;28.10;55.90;;;;;;4342426;33;20168;-36
2021/08/01 00:03:06;;;;;;;14.32;8.13;;;28.10;56.00;;;;;;4342743;33;20059;-37
2021/08/01 00:05:32;;;;;;;10.82;7.90;;;28.10;56.10;;;;;;4330297;33;20077;-36
2021/08/01 00:07:58;;;;;;;14.32;7.43;;;28.10;56.10;;;;;;4341992;33;20083;-38
2021/08/01 00:10:25;;;;;;;13.62;8.02;;;28.10;56.10;;;;;;4330399;33;20079;-36
2021/08/01 00:12:51;;;;;;;13.32;7.95;;;28.10;56.20;;;;;;4342091;33;20160;-37
2021/08/01 00:15:17;;;;;;;11.07;8.07;;;28.10;56.20;;;;;;4342471;33;20067;-36
2021/08/01 00:17:44;;;;;;;10.18;8.13;;;28.00;56.30;;;;;;4342389;33;20215;-37
2021/08/01 00:20:10;;;;;;;12.07;7.32;;;28.00;56.40;;;;;;4342741;33;20479;-37
2021/08/01 00:22:37;;;;;;;13.13;7.90;;;28.00;56.60;;;;;;4329925;33;20183;-38
2021/08/01 00:25:04;;;;;;;12.82;8.30;;;27.90;56.60;;;;;;4342220;33;20529;-37
2021/08/01 00:27:35;;;;;;;19.77;8.70;;;27.90;56.70;;;;;;4329657;33;20090;-36
2021/08/01 00:30:06;;;;;;;15.32;9.32;;;27.80;56.80;;;;;;4356500;32;20451;-37
2021/08/01 00:32:33;;;;;;;21.00;8.75;;;27.80;56.90;;;;;;4359241;32;20070;-35
2021/08/01 00:35:00;;;;;;;13.60;9.20;;;27.70;56.80;;;;;;4359495;32;20145;-36
2021/08/01 00:37:26;;;;;;;11.10;8.00;;;27.70;57.10;;;;;;4345635;32;20155;-36
2021/08/01 00:39:52;;;;;;;9.95;7.93;;;27.70;57.30;;;;;;4359649;32;20070;-38
2021/08/01 00:42:19;;;;;;;11.60;8.52;;;27.70;57.40;;;;;;4359785;32;20058;-37
2021/08/01 00:44:45;;;;;;;9.63;7.75;;;27.70;57.40;;;;;;4359293;32;20090;-36
2021/08/01 00:47:12;;;;;;;9.15;7.30;;;27.80;57.30;;;;;;4358865;32;21352;-37
2021/08/01 00:49:39;;;;;;;10.88;8.75;;;27.80;57.20;;;;;;4359060;32;20169;-37
2021/08/01 00:52:06;;;;;;;9.93;8.63;;;27.80;57.20;;;;;;4337263;33;20098;-37
2021/08/01 00:54:32;;;;;;;9.07;8.13;;;27.80;57.30;;;;;;4344292;33;20590;-37
2021/08/01 00:57:03;;;;;;;12.05;8.43;;;27.90;57.40;;;;;;4344012;33;20063;-37
2021/08/01 00:59:38;;;;;;;8.98;8.07;;;27.90;57.20;;;;;;4339473;32;20138;-36
2021/08/01 01:02:06;;;;;;;;;;;27.90;57.90;;;;;;4359634;32;20147;-36
2021/08/01 01:04:56;;;;;;;11.48;7.53;;;27.90;56.70;;;;;;4345208;32;19965;-37
2021/08/01 01:07:54;;;;;;;9.77;8.35;;;28.00;56.90;;;;;;4346196;32;20061;-36
2021/08/01 01:10:28;;;;;;;17.58;9.40;;;28.00;57.00;;;;;;4359488;32;20144;-37
2021/08/01 01:13:02;;;;;;;11.23;8.13;;;28.00;57.10;;;;;;4344899;32;20538;-38
2021/08/01 01:15:30;;;;;;;11.60;8.98;;;27.90;57.30;;;;;;4344886;32;20166;-38
2021/08/01 01:17:56;;;;;;;14.35;8.40;;;27.90;57.50;;;;;;4333011;32;20070;-37
2021/08/01 01:20:55;;;;;;;13.38;9.13;;;27.80;57.70;;;;;;4333052;32;20072;-37
2021/08/01 01:23:54;;;;;;;12.30;8.82;;;27.70;57.90;;;;;;4334536;32;20050;-38
2021/08/01 01:26:46;;;;;;;12.05;8.77;;;27.70;58.10;;;;;;4348281;32;20070;-37
2021/08/01 01:29:21;;;;;;;11.10;8.23;;;27.60;58.00;;;;;;4358834;32;20062;-37
2021/08/01 01:32:10;;;;;;;11.20;8.70;;;27.60;58.20;;;;;;4345414;32;20146;-37
2021/08/01 01:34:44;;;;;;;8.85;7.93;;;27.70;58.10;;;;;;4358616;32;20511;-38
2021/08/01 01:37:12;;;;;;;16.77;9.23;;;27.70;58.80;;;;;;4344650;32;20546;-37
2021/08/01 01:39:40;;;;;;;13.05;9.45;;;27.70;58.10;;;;;;4344771;32;20086;-37
2021/08/01 01:42:09;;;;;;;14.75;9.75;;;27.80;58.20;;;;;;4344420;32;20142;-38
2021/08/01 01:44:37;;;;;;;11.80;8.13;;;27.80;58.30;;;;;;4332485;32;20070;-38
2021/08/01 01:47:04;;;;;;;9.77;7.80;;;27.90;58.60;;;;;;4332416;32;20146;-38
2021/08/01 01:49:30;;;;;;;13.40;8.90;;;28.00;58.50;;;;;;4332293;32;20062;-38
2021/08/01 01:51:56;;;;;;;8.35;7.03;;;28.10;58.10;;;;;;4332040;32;20067;-37
2021/08/01 01:54:23;;;;;;;11.18;7.68;;;28.20;57.80;;;;;;4345014;32;20077;-36
2021/08/01 01:56:49;;;;;;;10.50;7.85;;;28.30;57.60;;;;;;4357907;32;20510;-37
2021/08/01 01:59:16;;;;;;;14.87;7.57;;;28.40;57.50;;;;;;4341697;33;20469;-36
2021/08/01 02:01:42;;;;;;;10.07;7.55;;;28.40;57.20;;;;;;4341743;33;20161;-37
2021/08/01 02:04:11;;;;;;;12.68;7.87;;;28.60;57.10;;;;;;4342958;32;20471;-37
2021/08/01 02:06:38;;;;;;;11.90;6.97;;;28.70;56.90;;;;;;4343647;32;20096;-37
2021/08/01 02:09:34;;;;;;;11.57;6.93;;;28.80;56.70;;;;;;4343115;32;20095;-39
2021/08/01 02:12:26;;;;;;;9.93;6.72;;;29.00;56.60;;;;;;4341638;33;20075;-37
2021/08/01 02:15:06;;;;;;;10.05;6.93;;;29.10;56.40;;;;;;4342533;33;20065;-37
2021/08/01 02:17:56;;;;;;;14.23;7.30;;;29.10;55.90;;;;;;4343463;32;20067;-38
2021/08/01 02:20:28;;;;;;;9.25;7.18;;;29.20;55.70;;;;;;4343128;32;20065;-36
2021/08/01 02:22:54;;;;;;;10.88;7.43;;;29.20;55.50;;;;;;4329875;33;20160;-38
2021/08/01 02:25:21;;;;;;;11.43;7.68;;;29.20;55.40;;;;;;4342175;33;20051;-36
2021/08/01 02:27:48;;;;;;;8.50;6.87;;;29.30;55.20;;;;;;4341314;33;20560;-37
2021/08/01 02:30:15;;;;;;;8.57;6.78;;;29.40;55.20;;;;;;4329693;33;20089;-37
2021/08/01 02:32:41;;;;;;;10.48;7.15;;;29.60;54.90;;;;;;4329513;33;20086;-36
2021/08/01 02:35:08;;;;;;;10.32;7.20;;;29.80;54.40;;;;;;4341769;33;20087;-36
2021/08/01 02:37:35;;;;;;;13.07;7.47;;;30.00;53.70;;;;;;4341858;32;20106;-37
2021/08/01 02:40:02;;;;;;;10.25;6.95;;;30.30;53.30;;;;;;4329506;33;20155;-36
2021/08/01 02:42:29;;;;;;;14.57;7.00;;;30.50;52.90;;;;;;4341900;33;20184;-37
2021/08/01 02:44:58;;;;;;;8.48;6.65;;;30.70;52.00;;;;;;4353932;32;20507;-37
2021/08/01 02:47:25;;;;;;;11.45;5.70;;;31.00;51.80;;;;;;4340381;33;20192;-37
2021/08/01 02:49:51;;;;;;;8.15;5.40;;;31.20;51.30;;;;;;4328658;33;20079;-37
2021/08/01 02:52:30;;;;;;;10.88;6.53;;;31.40;50.70;;;;;;4330845;33;20063;-37
2021/08/01 02:54:57;;;;;;;9.27;6.53;;;31.60;50.30;;;;;;4299259;33;20145;-36
2021/08/01 02:57:25;;;;;;;6.78;5.22;;;31.90;49.70;;;;;;4311109;33;20075;-37
2021/08/01 02:59:52;;;;;;;14.32;5.97;;;32.00;49.30;;;;;;4311098;33;20168;-37
2021/08/01 03:02:18;;;;;;;8.02;5.07;;;32.20;49.00;;;;;;4311454;33;20087;-37
2021/08/01 03:04:45;;;;;;;8.10;5.32;;;32.40;48.60;;;;;;4311112;33;20067;-37
2021/08/01 03:07:11;;;;;;;9.63;5.62;;;32.60;48.00;;;;;;4298907;33;20075;-36
2021/08/01 03:09:38;;;;;;;10.38;5.20;;;32.80;47.70;;;;;;4311300;33;20091;-36
2021/08/01 03:12:12;;;;;;;11.40;5.57;;;33.10;47.40;;;;;;4310934;33;20081;-38
2021/08/01 03:14:38;;;;;;;9.05;5.45;;;33.30;46.80;;;;;;4313838;33;20071;-38
2021/08/01 03:17:05;;;;;;;13.45;6.57;;;33.60;46.40;;;;;;4313944;33;20063;-37
2021/08/01 03:19:34;;;;;;;9.65;5.32;;;33.80;45.80;;;;;;4313551;33;20101;-37
2021/08/01 03:22:01;;;;;;;9.00;6.07;;;34.00;45.60;;;;;;4313985;33;20090;-37
2021/08/01 03:24:27;;;;;;;8.68;6.10;;;34.20;45.20;;;;;;4318599;33;20078;-37
2021/08/01 03:26:54;;;;;;;10.38;6.45;;;34.30;44.70;;;;;;4315817;33;20187;-37
2021/08/01 03:29:20;;;;;;;8.27;6.03;;;34.40;44.40;;;;;;4316107;33;20074;-36
2021/08/01 03:31:46;;;;;;;12.13;6.60;;;34.40;44.60;;;;;;4336158;32;20070;-36
2021/08/01 03:34:13;;;;;;;7.95;6.07;;;34.50;44.60;;;;;;4360244;32;20066;-37
2021/08/01 03:36:39;;;;;;;11.18;5.47;;;34.60;44.10;;;;;;4360311;32;20162;-37
2021/08/01 03:39:06;;;;;;;10.32;5.50;;;34.60;44.00;;;;;;4346269;32;20093;-37
2021/08/01 03:41:32;;;;;;;8.55;5.57;;;34.80;43.90;;;;;;4360194;32;20149;-38
2021/08/01 03:43:58;;;;;;;11.77;5.35;;;34.90;43.80;;;;;;4360311;32;20074;-37
2021/08/01 03:46:25;;;;;;;8.15;5.28;;;35.00;43.40;;;;;;4359707;32;20143;-36
2021/08/01 03:48:51;;;;;;;8.27;6.15;;;35.10;43.00;;;;;;4346359;32;20066;-37
2021/08/01 03:51:17;;;;;;;8.35;5.80;;;35.30;42.70;;;;;;4356535;32;20057;-36
2021/08/01 03:53:44;;;;;;;10.00;6.37;;;35.40;42.50;;;;;;4345286;32;20139;-36
2021/08/01 03:56:10;;;;;;;7.95;6.03;;;35.60;42.40;;;;;;4331380;33;20153;-37
2021/08/01 03:58:37;;;;;;;9.05;6.47;;;35.60;42.20;;;;;;4348483;32;20503;-37
2021/08/01 04:01:03;;;;;;;11.18;6.45;;;35.80;42.00;;;;;;4360204;32;20082;-38
2021/08/01 04:03:29;;;;;;;13.05;6.35;;;35.80;41.80;;;;;;4360347;32;20066;-36
2021/08/01 04:05:56;;;;;;;14.27;6.60;;;35.90;41.60;;;;;;4359958;32;20074;-37
2021/08/01 04:08:22;;;;;;;7.78;6.30;;;35.90;41.50;;;;;;4359604;32;20065;-37
2021/08/01 04:10:48;;;;;;;8.93;5.93;;;35.90;41.40;;;;;;4359717;32;20179;-36
2021/08/01 04:13:15;;;;;;;11.70;6.80;;;36.00;41.60;;;;;;4359656;32;20160;-37
2021/08/01 04:15:47;;;;;;;8.52;5.93;;;36.10;41.10;;;;;;4359712;32;20104;-37
2021/08/01 04:18:14;;;;;;;9.82;6.68;;;36.20;40.80;;;;;;4345462;32;20145;-37
2021/08/01 04:20:40;;;;;;;8.27;5.82;;;36.30;40.30;;;;;;4359691;32;20101;-37
2021/08/01 04:23:06;;;;;;;8.02;5.57;;;36.40;39.80;;;;;;4359646;32;20561;-37
2021/08/01 04:25:33;;;;;;;8.02;6.18;;;36.50;39.50;;;;;;4359127;32;20478;-37
2021/08/01 04:28:01;;;;;;;10.43;5.82;;;36.60;39.50;;;;;;4359799;32;20077;-37
2021/08/01 04:30:28;;;;;;;8.82;5.93;;;36.70;39.40;;;;;;4359106;32;20222;-36
2021/08/01 04:32:54;;;;;;;9.38;6.75;;;36.70;39.40;;;;;;4344633;32;20187;-38
2021/08/01 04:35:20;;;;;;;9.35;5.95;;;36.80;39.10;;;;;;4358492;32;20054;-37
2021/08/01 04:37:47;;;;;;;10.82;6.70;;;36.90;38.90;;;;;;4358586;32;20070;-37
2021/08/01 04:40:14;;;;;;;6.53;5.82;;;37.10;39.00;;;;;;4358518;32;20075;-38
2021/08/01 04:42:40;;;;;;;10.23;6.68;;;37.10;38.50;;;;;;4345166;32;20482;-37
2021/08/01 04:45:07;;;;;;;7.40;6.30;;;37.10;38.50;;;;;;4359123;32;20090;-38
2021/08/01 04:47:33;;;;;;;10.40;6.80;;;37.10;38.50;;;;;;4359484;32;20595;-36
2021/08/01 04:50:00;;;;;;;12.32;7.18;;;37.20;38.60;;;;;;4359385;32;20140;-37
2021/08/01 04:52:26;;;;;;;7.10;6.40;;;37.30;38.40;;;;;;4348517;32;20086;-37
2021/08/01 04:54:52;;;;;;;9.45;6.70;;;37.40;37.90;;;;;;4344336;33;20078;-37
2021/08/01 04:57:19;;;;;;;9.35;6.18;;;37.50;37.80;;;;;;4344313;33;20066;-37
2021/08/01 04:59:45;;;;;;;7.50;6.22;;;37.50;37.70;;;;;;4354931;32;20192;-37
2021/08/01 05:02:12;;;;;;;7.97;6.50;;;37.60;37.50;;;;;;4358937;32;20109;-37
2021/08/01 05:04:38;;;;;;;6.62;5.93;;;37.60;37.50;;;;;;4358888;32;20535;-37
2021/08/01 05:07:05;;;;;;;15.88;7.20;;;37.70;37.50;;;;;;4359273;32;20078;-38
2021/08/01 05:09:31;;;;;;;9.13;6.43;;;37.80;37.60;;;;;;4358619;32;20108;-37
2021/08/01 05:11:58;;;;;;;11.18;6.82;;;38.00;37.90;;;;;;4358623;32;20093;-39
2021/08/01 05:14:24;;;;;;;8.15;6.87;;;38.10;37.60;;;;;;4359034;32;20104;-38
2021/08/01 05:16:51;;;;;;;11.63;6.85;;;38.30;37.20;;;;;;4358864;32;20066;-38
2021/08/01 05:19:17;;;;;;;6.93;6.03;;;38.50;36.70;;;;;;4358810;32;20546;-38
2021/08/01 05:21:43;;;;;;;10.95;6.10;;;38.60;36.40;;;;;;4358926;32;20140;-38
2021/08/01 05:24:10;;;;;;;10.35;5.97;;;38.80;36.40;;;;;;4358822;32;20078;-39
2021/08/01 05:26:36;;;;;;;7.47;5.43;;;38.90;36.00;;;;;;4358510;32;20066;-38
2021/08/01 05:29:03;;;;;;;8.55;6.25;;;39.00;35.60;;;;;;4344866;32;20556;-38
2021/08/01 05:31:29;;;;;;;9.40;6.22;;;39.10;35.40;;;;;;4358285;32;20611;-37
2021/08/01 05:33:56;;;;;;;13.82;6.37;;;39.30;35.00;;;;;;4358427;32;20078;-39
2021/08/01 05:36:22;;;;;;;6.72;6.00;;;39.40;35.00;;;;;;4357859;32;20070;-38
2021/08/01 05:38:49;;;;;;;7.97;5.60;;;39.60;34.80;;;;;;4358462;32;20168;-37
2021/08/01 05:41:15;;;;;;;7.60;5.78;;;39.70;34.40;;;;;;4358415;32;20095;-38
2021/08/01 05:43:42;;;;;;;9.90;6.25;;;39.90;34.10;;;;;;4358123;32;20161;-37
2021/08/01 05:46:12;;;;;;;7.65;5.50;;;40.00;34.10;;;;;;4358918;32;20143;-37
2021/08/01 05:48:39;;;;;;;8.38;5.68;;;40.20;33.80;;;;;;4358496;32;20089;-37
2021/08/01 05:51:07;;;;;;;8.55;5.50;;;40.30;33.30;;;;;;4356226;32;20166;-37
2021/08/01 05:53:33;;;;;;;6.07;4.93;;;40.50;32.90;;;;;;4343504;33;20157;-38
2021/08/01 05:56:10;;;;;;;7.37;5.60;;;40.70;32.80;;;;;;4343267;33;20098;-38
2021/08/01 05:58:37;;;;;;;9.48;5.05;;;40.80;32.50;;;;;;4347078;32;20082;-38
2021/08/01 06:01:12;;;;;;;8.38;5.32;;;41.00;32.00;;;;;;4358146;32;20146;-37
2021/08/01 06:03:39;;;;;;;6.45;5.40;;;41.20;31.90;;;;;;4358466;32;20069;-38
2021/08/01 06:06:19;;;;;;;5.10;4.60;;;41.30;31.60;;;;;;4358526;32;20058;-37
2021/08/01 06:08:47;;;;;;;6.68;4.55;;;41.50;31.70;;;;;;4358108;32;20455;-37
2021/08/01 06:11:14;;;;;;;6.47;4.55;;;41.60;31.60;;;;;;4358153;32;20085;-38
2021/08/01 06:13:41;;;;;;;8.48;4.82;;;41.90;31.40;;;;;;4357823;32;20541;-38
2021/08/01 06:16:12;;;;;;;10.25;4.53;;;42.10;30.80;;;;;;4344894;32;20147;-38
2021/08/01 06:18:38;;;;;;;5.45;4.07;;;42.20;30.60;;;;;;4345028;32;20526;-38
2021/08/01 06:21:13;;;;;;;9.38;4.43;;;42.30;30.30;;;;;;4357971;32;20059;-37
2021/08/01 06:23:42;;;;;;;4.93;4.32;;;42.40;30.20;;;;;;4358031;32;20089;-37
2021/08/01 06:26:11;;;;;;;5.95;4.68;;;42.40;30.40;;;;;;4344432;32;20050;-37
2021/08/01 06:28:39;;;;;;;9.00;4.65;;;42.40;30.30;;;;;;4358078;32;20139;-38
2021/08/01 06:31:06;;;;;;;6.07;5.03;;;42.40;30.40;;;;;;4358191;32;20077;-38
2021/08/01 06:33:33;;;;;;;10.18;5.28;;;42.40;30.50;;;;;;4358168;32;20058;-39
2021/08/01 06:36:00;;;;;;;5.70;5.07;;;42.40;30.50;;;;;;4357888;32;20447;-37
2021/08/01 06:38:26;;;;;;;12.75;5.20;;;42.50;30.90;;;;;;4358241;32;20074;-38
2021/08/01 06:40:53;;;;;;;5.72;4.50;;;42.50;30.90;;;;;;4357675;32;20220;-37
2021/08/01 06:43:19;;;;;;;7.20;4.87;;;42.50;31.00;;;;;;4357443;32;20078;-37
2021/08/01 06:45:45;;;;;;;6.53;5.05;;;42.60;31.20;;;;;;4357591;32;20066;-37
2021/08/01 06:48:12;;;;;;;9.20;5.03;;;42.80;30.70;;;;;;4358695;32;20082;-37
2021/08/01 06:50:38;;;;;;;8.30;4.93;;;42.70;30.20;;;;;;4361035;32;20062;-37
2021/08/01 06:53:05;;;;;;;7.12;5.45;;;42.70;30.50;;;;;;4346157;32;20475;-40
2021/08/01 06:55:31;;;;;;;7.72;4.60;;;42.60;30.30;;;;;;4345804;33;20075;-40
2021/08/01 06:57:57;;;;;;;5.53;4.97;;;42.60;30.10;;;;;;4345918;33;20067;-38
2021/08/01 07:00:24;;;;;;;8.13;4.15;;;42.60;30.30;;;;;;4360414;32;20062;-38
2021/08/01 07:02:59;;;;;;;6.30;4.62;;;42.50;30.00;;;;;;4360616;32;20495;-38
2021/08/01 07:05:26;;;;;;;6.65;4.85;;;42.50;29.90;;;;;;4360671;32;20076;-38
2021/08/01 07:07:53;;;;;;;7.40;4.47;;;42.50;30.20;;;;;;4346862;32;20534;-38
2021/08/01 07:10:19;;;;;;;5.32;4.07;;;42.60;30.00;;;;;;4360752;32;20069;-37
2021/08/01 07:12:46;;;;;;;9.23;4.12;;;42.60;29.50;;;;;;4360857;32;20145;-38
2021/08/01 07:15:17;;;;;;;10.90;3.72;;;42.80;29.60;;;;;;4346731;32;20216;-38
2021/08/01 07:17:44;;;;;;;9.35;4.45;;;42.90;29.10;;;;;;4360603;32;20055;-37
2021/08/01 07:20:12;;;;;;;8.23;4.57;;;42.90;28.60;;;;;;4346682;32;20546;-39
2021/08/01 07:22:39;;;;;;;7.37;4.25;;;42.90;28.40;;;;;;4346695;32;20057;-38
2021/08/01 07:25:07;;;;;;;3.60;3.30;;;42.90;28.50;;;;;;4360396;32;20066;-37
2021/08/01 07:27:34;;;;;;;6.03;4.12;;;42.90;28.30;;;;;;4360273;32;20103;-37
2021/08/01 07:30:00;;;;;;;6.72;3.83;;;42.80;28.30;;;;;;4360046;32;20070;-37
2021/08/01 07:32:27;;;;;;;6.78;3.30;;;42.70;28.70;;;;;;4360446;32;20144;-37
2021/08/01 07:34:53;;;;;;;6.78;3.40;;;42.60;28.50;;;;;;4360499;32;20081;-38
2021/08/01 07:37:20;;;;;;;5.25;3.37;;;42.60;28.40;;;;;;4360160;32;20511;-38
2021/08/01 07:39:46;;;;;;;6.57;3.35;;;42.50;28.20;;;;;;4360240;32;20157;-39
2021/08/01 07:42:13;;;;;;;4.15;3.75;;;42.50;28.30;;;;;;4360207;32;20149;-38
2021/08/01 07:44:46;;;;;;;5.85;3.05;;;42.40;28.30;;;;;;4359939;32;20154;-37
2021/08/01 07:47:13;;;;;;;;;;;42.40;28.00;;;;;;4360354;32;20084;-37
2021/08/01 07:49:40;;;;;;;9.73;2.72;;;42.50;28.30;;;;;;4360022;32;19997;-38
2021/08/01 07:52:07;;;;;;;4.40;2.72;;;42.50;27.40;;;;;;4351097;32;20109;-37
2021/08/01 07:54:33;;;;;;;3.60;2.55;;;42.50;27.60;;;;;;4345071;32;20058;-37
2021/08/01 07:57:00;;;;;;;3.78;2.78;;;42.60;27.70;;;;;;4345039;32;20078;-38
2021/08/01 07:59:26;;;;;;;4.37;2.33;;;42.70;27.30;;;;;;4352416;32;20142;-38
2021/08/01 08:01:52;;;;;;;3.67;2.62;;;42.80;27.00;;;;;;4360046;32;20081;-37
2021/08/01 08:04:19;;;;;;;3.28;1.77;;;42.90;26.90;;;;;;4360019;32;20078;-38
2021/08/01 08:06:45;;;;;;;4.70;2.30;;;43.10;27.00;;;;;;4359708;32;20066;-38
2021/08/01 08:09:12;;;;;;;2.60;2.15;;;43.10;26.80;;;;;;4359714;32;20514;-38
2021/08/01 08:11:38;;;;;;;4.20;2.30;;;43.00;27.00;;;;;;4359602;32;20066;-37
2021/08/01 08:14:05;;;;;;;3.00;1.80;;;43.10;26.90;;;;;;4346063;32;20077;-38
2021/08/01 08:16:33;;;;;;;2.55;1.90;;;43.00;26.90;;;;;;4359590;32;20069;-37
2021/08/01 08:19:00;;;;;;;9.75;2.95;;;43.00;26.10;;;;;;4359705;32;20066;-38
2021/08/01 08:21:26;;;;;;;3.42;1.90;;;43.00;25.90;;;;;;4359537;32;20050;-37
2021/08/01 08:23:53;;;;;;;2.35;1.67;;;42.70;25.20;;;;;;4359548;32;20082;-39
2021/08/01 08:26:20;;;;;;;5.05;2.75;;;42.40;25.50;;;;;;4359500;32;20084;-37
2021/08/01 08:28:46;;;;;;;2.37;1.87;;;42.10;26.00;;;;;;4359447;32;20144;-39
2021/08/01 08:31:13;;;;;;;3.92;1.80;;;42.00;25.90;;;;;;4359346;32;20471;-39
2021/08/01 08:33:39;;;;;;;5.32;1.52;;;41.80;25.80;;;;;;4359406;32;20190;-38
2021/08/01 08:36:05;;;;;;;2.10;1.60;;;41.80;25.80;;;;;;4359392;32;20639;-39
2021/08/01 08:38:32;;;;;;;5.87;1.42;;;41.70;25.50;;;;;;4359215;32;20065;-38
2021/08/01 08:40:58;;;;;;;4.30;1.58;;;41.50;25.50;;;;;;4359229;32;20159;-39
2021/08/01 08:43:25;;;;;;;3.40;1.98;;;41.40;25.70;;;;;;4345869;32;20062;-38
2021/08/01 08:45:51;;;;;;;1.70;1.37;;;41.40;25.80;;;;;;4358824;32;20097;-39
2021/08/01 08:48:17;;;;;;;3.50;1.55;;;41.40;25.40;;;;;;4333279;32;20622;-38
2021/08/01 08:50:49;;;;;;;13.95;1.65;;;41.40;25.70;;;;;;4333040;32;20071;-39
2021/08/01 08:53:19;;;;;;;4.97;1.55;;;41.40;25.60;;;;;;4330942;33;20106;-38
2021/08/01 08:55:45;;;;;;;4.22;1.40;;;41.40;25.50;;;;;;4319144;33;20059;-39
2021/08/01 08:58:12;;;;;;;4.03;1.30;;;41.40;25.70;;;;;;4318576;32;20074;-39
2021/08/01 09:00:38;;;;;;;4.05;2.20;;;41.40;25.70;;;;;;4332952;32;20074;-38
2021/08/01 09:03:05;;;;;;;2.72;1.62;;;41.40;25.80;;;;;;4345087;32;20545;-39
2021/08/01 09:05:31;;;;;;;12.85;1.50;;;41.30;25.70;;;;;;4345366;32;20117;-39
2021/08/01 09:07:58;;;;;;;3.37;1.37;;;41.20;25.50;;;;;;4358785;32;20090;-37
2021/08/01 09:10:24;;;;;;;3.58;1.55;;;41.10;25.60;;;;;;4358859;32;20167;-39
2021/08/01 09:12:53;;;;;;;2.53;1.50;;;41.00;25.80;;;;;;4358911;32;20477;-39
2021/08/01 09:15:27;;;;;;;3.15;1.10;;;40.90;25.90;;;;;;4358954;32;20076;-38
2021/08/01 09:17:54;;;;;;;;;;;40.90;26.40;;;;;;4359242;32;20454;-38
2021/08/01 09:20:32;;;;;;;2.50;1.60;;;41.00;26.50;;;;;;4358883;32;19966;-38
2021/08/01 09:23:02;;;;;;;6.35;1.40;;;41.00;26.50;;;;;;4358592;32;20466;-38
2021/08/01 09:25:34;;;;;;;3.12;1.55;;;41.10;26.20;;;;;;4358735;32;20122;-38
2021/08/01 09:28:19;;;;;;;3.67;1.33;;;41.00;26.10;;;;;;4358461;32;20089;-37
2021/08/01 09:30:56;;;;;;;3.20;1.25;;;41.10;26.00;;;;;;4358776;32;20065;-38
2021/08/01 09:33:43;;;;;;;2.95;1.30;;;41.20;26.10;;;;;;4340661;33;20082;-40
2021/08/01 09:36:20;;;;;;;3.47;1.12;;;41.40;26.30;;;;;;4341192;33;20091;-39
2021/08/01 09:38:57;;;;;;;3.25;1.80;;;41.40;25.70;;;;;;4341220;33;20062;-39
2021/08/01 09:41:38;;;;;;;4.32;1.40;;;41.40;25.50;;;;;;4341270;33;20078;-38
2021/08/01 09:44:09;;;;;;;20.52;2.53;;;41.30;26.10;;;;;;4340847;33;20070;-38
2021/08/01 09:46:49;;;;;;;3.47;1.25;;;41.20;26.20;;;;;;4341033;33;20196;-38
2021/08/01 09:49:20;;;;;;;2.35;1.67;;;41.10;26.20;;;;;;4340741;32;20269;-39
2021/08/01 09:51:48;;;;;;;4.28;1.60;;;41.10;25.80;;;;;;4334466;33;20115;-38
2021/08/01 09:54:16;;;;;;;1.65;1.45;;;41.10;25.80;;;;;;4326060;33;20097;-38
2021/08/01 09:57:03;;;;;;;3.10;1.50;;;41.10;25.70;;;;;;4325990;33;20075;-39
2021/08/01 09:59:31;;;;;;;2.95;1.50;;;41.30;25.60;;;;;;4334646;33;20061;-39
2021/08/01 10:02:03;;;;;;;2.60;1.65;;;41.40;25.40;;;;;;4328925;33;20071;-38
2021/08/01 10:04:42;;;;;;;3.53;1.27;;;41.50;25.50;;;;;;4340386;33;20566;-39
2021/08/01 10:07:16;;;;;;;4.00;1.60;;;41.60;25.60;;;;;;4329281;33;20672;-39
2021/08/01 10:09:49;;;;;;;2.25;1.30;;;41.80;25.50;;;;;;4340948;33;20067;-38
2021/08/01 10:12:15;;;;;;;4.07;1.40;;;41.90;25.50;;;;;;4343103;33;20148;-39
2021/08/01 10:14:43;;;;;;;3.53;1.60;;;42.20;25.20;;;;;;4343179;33;20145;-39
2021/08/01 10:17:09;;;;;;;4.80;2.00;;;42.30;25.20;;;;;;4343265;33;20070;-38
2021/08/01 10:19:36;;;;;;;5.55;1.98;;;42.30;25.20;;;;;;4343430;33;20082;-38
2021/08/01 10:22:04;;;;;;;4.75;1.10;;;42.40;25.40;;;;;;4343128;33;20063;-38
2021/08/01 10:24:34;;;;;;;5.95;1.75;;;42.40;25.20;;;;;;4317312;33;20074;-38
2021/08/01 10:27:04;;;;;;;3.12;1.40;;;42.50;25.30;;;;;;4343006;33;20448;-39
2021/08/01 10:29:50;;;;;;;1.90;1.40;;;42.50;25.20;;;;;;4343103;33;20189;-38
2021/08/01 10:32:19;;;;;;;5.75;1.85;;;42.60;25.20;;;;;;4343048;33;20421;-38
2021/08/01 10:35:06;;;;;;;1.65;1.37;;;42.80;25.80;;;;;;4343055;33;20098;-38
2021/08/01 10:37:44;;;;;;;4.68;1.70;;;42.90;25.60;;;;;;4329739;33;20077;-39
2021/08/01 10:40:13;;;;;;;5.05;1.77;;;43.00;25.70;;;;;;4342712;33;20086;-39
2021/08/01 10:42:42;;;;;;;2.75;1.37;;;43.00;25.30;;;;;;4343239;33;20075;-39
2021/08/01 10:45:10;;;;;;;4.07;1.83;;;43.20;25.30;;;;;;4305755;33;20170;-39
2021/08/01 10:47:37;;;;;;;2.10;1.50;;;43.40;25.20;;;;;;4342879;33;20074;-39
2021/08/01 10:50:07;;;;;;;2.60;1.60;;;43.60;25.00;;;;;;4343072;32;20175;-39
2021/08/01 10:52:35;;;;;;;5.90;1.65;;;43.70;24.80;;;;;;4314488;33;20059;-39
2021/08/01 10:55:06;;;;;;;2.17;1.20;;;43.80;24.70;;;;;;4343008;33;20470;-39
2021/08/01 10:57:33;;;;;;;2.37;1.40;;;43.80;24.40;;;;;;4342951;33;20066;-41
2021/08/01 11:00:08;;;;;;;2.35;1.37;;;43.80;24.40;;;;;;4326336;33;20072;-38
2021/08/01 11:02:35;;;;;;;1.42;1.33;;;43.80;24.50;;;;;;4328340;33;20137;-38
2021/08/01 11:05:37;;;;;;;3.15;1.40;;;43.80;24.40;;;;;;4326446;33;20475;-39
2021/08/01 11:08:05;;;;;;;2.78;1.55;;;43.70;24.40;;;;;;4320084;33;20086;-39
2021/08/01 11:10:32;;;;;;;5.10;1.42;;;43.50;24.30;;;;;;4328200;33;20078;-38
2021/08/01 11:12:58;;;;;;;2.03;1.27;;;43.20;24.30;;;;;;4326614;33;20063;-39
2021/08/01 11:15:45;;;;;;;2.03;1.15;;;43.20;24.20;;;;;;4328359;33;20068;-39
2021/08/01 11:18:11;;;;;;;1.55;1.10;;;43.20;24.10;;;;;;4326713;33;20086;-39
2021/08/01 11:20:44;;;;;;;3.50;1.20;;;43.10;23.90;;;;;;4327629;33;20066;-39
2021/08/01 11:23:10;;;;;;;3.08;1.60;;;43.10;24.60;;;;;;4327683;33;20180;-38
2021/08/01 11:25:40;;;;;;;3.25;1.42;;;43.10;24.30;;;;;;4328255;33;20059;-38
2021/08/01 11:28:10;;;;;;;1.60;1.15;;;43.10;23.80;;;;;;4327899;33;20074;-38
2021/08/01 11:30:54;;;;;;;4.05;1.23;;;43.00;23.70;;;;;;4327979;33;20063;-39
2021/08/01 11:33:47;;;;;;;2.35;1.58;;;43.00;23.80;;;;;;4328148;33;20056;-39
2021/08/01 11:36:16;;;;;;;3.67;1.30;;;42.80;24.00;;;;;;4330216;33;20071;-38
2021/08/01 11:38:51;;;;;;;4.15;1.20;;;42.70;24.10;;;;;;4330594;33;20162;-38
2021/08/01 11:41:33;;;;;;;4.95;1.40;;;42.60;24.30;;;;;;4330832;33;20078;-38
2021/08/01 11:44:20;;;;;;;4.00;1.85;;;42.60;24.50;;;;;;4330605;33;20055;-38
2021/08/01 11:49:29;;;;;;;3.42;1.52;;;42.60;24.80;;;;;;4330426;33;20090;-39
2021/08/01 11:51:58;;;;;;;2.58;1.25;;;42.60;24.60;;;;;;4337640;33;20078;-38
2021/08/01 11:54:36;;;;;;;1.35;1.25;;;42.50;24.50;;;;;;4345251;32;20077;-38
2021/08/01 11:57:11;;;;;;;4.05;1.55;;;42.60;24.20;;;;;;4345037;32;20067;-38
2021/08/01 11:59:38;;;;;;;2.58;1.10;;;42.60;24.60;;;;;;4345238;32;20165;-38
2021/08/01 12:02:13;;;;;;;3.53;1.45;;;42.70;24.60;;;;;;4345166;33;20518;-38
2021/08/01 12:04:42;;;;;;;3.50;1.27;;;42.80;24.70;;;;;;4343213;33;20076;-39
2021/08/01 12:07:09;;;;;;;2.00;1.00;;;43.10;24.70;;;;;;4343126;33;20055;-40
2021/08/01 12:09:40;;;;;;;3.47;1.15;;;43.20;24.40;;;;;;4343585;33;20058;-39
2021/08/01 12:12:07;;;;;;;1.98;1.08;;;43.50;24.30;;;;;;4345032;32;20139;-38
2021/08/01 12:14:36;;;;;;;4.93;1.17;;;43.60;24.50;;;;;;4344473;32;20644;-40
2021/08/01 12:17:10;;;;;;;5.30;1.08;;;43.80;24.60;;;;;;4343397;33;20450;-38
2021/08/01 12:19:40;;;;;;;4.75;1.30;;;43.90;24.00;;;;;;4345374;32;20175;-39
2021/08/01 12:22:17;;;;;;;3.65;1.55;;;44.00;24.40;;;;;;4344805;33;20133;-39
2021/08/01 12:24:56;;;;;;;4.45;1.50;;;44.00;24.60;;;;;;4343352;33;20509;-38
2021/08/01 12:27:26;;;;;;;3.08;1.20;;;44.20;24.30;;;;;;4344640;32;20066;-38
2021/08/01 12:29:55;;;;;;;3.90;1.33;;;44.50;24.10;;;;;;4344715;32;20193;-38
2021/08/01 12:32:28;;;;;;;3.95;1.12;;;44.70;24.00;;;;;;4344573;32;20066;-38
2021/08/01 12:35:15;;;;;;;2.58;1.40;;;44.90;23.70;;;;;;4344287;32;20063;-38
2021/08/01 12:37:57;;;;;;;2.90;1.15;;;44.90;23.60;;;;;;4344753;32;20074;-39
2021/08/01 12:40:42;;;;;;;3.28;1.00;;;44.80;23.20;;;;;;4343064;33;20083;-38
2021/08/01 12:43:23;;;;;;;4.28;1.50;;;44.70;23.20;;;;;;4344118;32;20063;-38
2021/08/01 12:45:50;;;;;;;3.97;1.40;;;44.50;23.30;;;;;;4344115;32;20065;-38
2021/08/01 12:48:27;;;;;;;3.30;1.42;;;44.20;23.40;;;;;;4344301;32;20066;-38
2021/08/01 12:50:59;;;;;;;2.72;1.17;;;44.00;23.30;;;;;;4344125;32;20191;-38
2021/08/01 12:53:27;;;;;;;5.30;1.60;;;43.80;23.70;;;;;;4359096;32;20082;-38
2021/08/01 12:55:59;;;;;;;2.17;1.50;;;43.50;24.00;;;;;;4345161;32;20190;-37
2021/08/01 12:58:35;;;;;;;4.10;1.10;;;43.40;24.30;;;;;;4344885;32;20149;-38
2021/08/01 13:01:09;;;;;;;3.37;1.23;;;43.40;24.40;;;;;;4359250;32;20094;-38